首页
METAR-TAF:

METAR-TAF

机场 :

温尼伯詹姆斯·阿姆斯特朗·理查森国际机场

温尼伯, 曼尼托巴, 加拿大

纬度: 49-54N, 经度: 097-14W, 海拔: 239米

当前天气观测

该预报发布于21分钟前的07:00 UTC
风速5节,风向西转西北
温度 11°C
湿度 87%
气压 1018 hPa
能見度: 24.1公里
天空无云

METAR: CYWG 180700Z 29005KT 15SM SKC 11/09 A3006 RMK SLP182

时间: 02:21 (07:21 UTC)

预报

该预报发布于1小时和39分钟前的05:42 UTC
预报有效从18日的 06点(UTC)到 19日的 06点(UTC)
风速3节,风向多变
能見度: 10公里
少量云层高于6000英尺
散云层高于20000英尺
从 18日的 1600点(UTC)
风速10节,风向北转东北
能見度: 10公里
少量云层高于8000英尺
从 19日的 0300点(UTC)
风速3节,风向多变
能見度: 10公里
天空无云

TAF: CYWG 180542Z 1806/1906 VRB03KT P6SM FEW060 SCT200 FM181600 03010KT P6SM FEW080 FM190300 VRB03KT P6SM SKC RMK NXT FCST BY 181200Z

超过4000个机场的气象观测和天气预报(METAR&TAF报告)。

可查询的气象台以黄色和红色小点在地图上表示。

将鼠标移到小点上方,可查看气象台名称。

然后点击查看天气观测和预报。

如需切换地图:点击带黑十字的绿色按钮放大地图;点击带横线的绿色按钮缩小地图;或者点击绿色箭头查看邻近地区的地图。


METAR-TAF: